Time;durP1;ratioP1;P1;durP2;ratioP2;P2;SDS_P1;SDS_P2;PMS_P1;PMS_P2;Temp;Humidity;BMP_temperature;BMP_pressure;BME280_temperature;BME280_humidity;BME280_pressure;Samples;Min_cycle;Max_cycle;Signal;HPM_P1;HPM_P2
2023/07/13 00:00:26;;;;;;;2.97;0.90;;;;;;;;;;5012876;28;20029;-74
2023/07/13 00:02:53;;;;;;;2.92;0.93;;;;;;;;;;5012912;28;20045;-74
2023/07/13 00:05:20;;;;;;;2.47;0.63;;;;;;;;;;5013250;28;20453;-74
2023/07/13 00:07:46;;;;;;;1.50;0.50;;;;;;;;;;5012932;28;20027;-74
2023/07/13 00:10:12;;;;;;;4.35;0.60;;;;;;;;;;5010416;28;20029;-75
2023/07/13 00:12:39;;;;;;;3.45;1.02;;;;;;;;;;5012823;28;20038;-74
2023/07/13 00:15:07;;;;;;;1.70;0.65;;;;;;;;;;5012847;28;20018;-74
2023/07/13 00:17:33;;;;;;;0.70;0.38;;;;;;;;;;5012643;28;20443;-74
2023/07/13 00:19:59;;;;;;;2.05;0.60;;;;;;;;;;5012706;28;20450;-74
2023/07/13 00:22:26;;;;;;;3.08;0.50;;;;;;;;;;5013015;28;20018;-74
2023/07/13 00:24:57;;;;;;;1.42;0.45;;;;;;;;;;5013051;28;20041;-74
2023/07/13 00:27:25;;;;;;;4.30;0.65;;;;;;;;;;5012610;28;20117;-74
2023/07/13 00:29:52;;;;;;;3.60;0.55;;;;;;;;;;5012817;28;20018;-75
2023/07/13 00:32:19;;;;;;;2.22;0.82;;;;;;;;;;5012617;28;20389;-74
2023/07/13 00:34:45;;;;;;;1.95;0.50;;;;;;;;;;5012708;28;20034;-74
2023/07/13 00:37:11;;;;;;;3.47;0.60;;;;;;;;;;5012941;28;20038;-74
2023/07/13 00:39:37;;;;;;;3.35;0.50;;;;;;;;;;5016936;28;20029;-74
2023/07/13 00:42:04;;;;;;;3.78;0.50;;;;;;;;;;5016685;28;20140;-74
2023/07/13 00:44:30;;;;;;;1.45;0.50;;;;;;;;;;5016492;28;20030;-74
2023/07/13 00:46:58;;;;;;;3.33;0.70;;;;;;;;;;5016521;28;20026;-74
2023/07/13 00:49:25;;;;;;;2.70;0.57;;;;;;;;;;5016766;28;20405;-74
2023/07/13 00:51:53;;;;;;;19.10;1.05;;;;;;;;;;5016479;28;20030;-74
2023/07/13 00:54:21;;;;;;;2.88;0.50;;;;;;;;;;5016390;28;20026;-74
2023/07/13 00:56:49;;;;;;;4.85;0.68;;;;;;;;;;5016289;28;20457;-74
2023/07/13 00:59:17;;;;;;;1.95;0.60;;;;;;;;;;5016270;28;20476;-74
2023/07/13 01:01:43;;;;;;;4.10;0.70;;;;;;;;;;5016125;28;20022;-74
2023/07/13 01:04:10;;;;;;;2.72;0.90;;;;;;;;;;5016042;28;20062;-74
2023/07/13 01:06:37;;;;;;;4.10;1.00;;;;;;;;;;5016020;28;20377;-74
2023/07/13 01:09:05;;;;;;;4.88;1.00;;;;;;;;;;5016277;28;20026;-74
2023/07/13 01:11:31;;;;;;;2.53;0.70;;;;;;;;;;5015754;28;20046;-74
2023/07/13 01:13:57;;;;;;;2.85;0.70;;;;;;;;;;5015857;28;20062;-74
2023/07/13 01:16:28;;;;;;;2.53;0.80;;;;;;;;;;5016146;28;20503;-74
2023/07/13 01:18:58;;;;;;;3.25;1.00;;;;;;;;;;5015753;28;20477;-74
2023/07/13 01:21:24;;;;;;;4.00;0.80;;;;;;;;;;5015831;28;20014;-75
2023/07/13 01:23:50;;;;;;;3.38;0.93;;;;;;;;;;5015738;28;20026;-74
2023/07/13 01:26:16;;;;;;;5.15;1.02;;;;;;;;;;5015751;28;20160;-74
2023/07/13 01:28:43;;;;;;;3.83;1.20;;;;;;;;;;5015574;28;20022;-74
2023/07/13 01:31:09;;;;;;;4.03;1.00;;;;;;;;;;5015868;28;20048;-74
2023/07/13 01:33:37;;;;;;;3.53;0.80;;;;;;;;;;5015619;28;20029;-74
2023/07/13 01:36:03;;;;;;;4.20;1.25;;;;;;;;;;5015466;28;20018;-74
2023/07/13 01:38:29;;;;;;;5.20;1.20;;;;;;;;;;5015696;28;20037;-74
2023/07/13 01:40:55;;;;;;;6.68;1.35;;;;;;;;;;5015507;28;20026;-74
2023/07/13 01:43:21;;;;;;;2.85;0.90;;;;;;;;;;5015280;28;20030;-74
2023/07/13 01:45:47;;;;;;;3.88;1.10;;;;;;;;;;5015467;28;20029;-74
2023/07/13 01:48:14;;;;;;;5.07;1.02;;;;;;;;;;5014965;28;20115;-74
2023/07/13 01:50:40;;;;;;;2.88;1.10;;;;;;;;;;5014315;28;20022;-74
2023/07/13 01:53:06;;;;;;;4.10;1.08;;;;;;;;;;5015199;28;20061;-74
2023/07/13 01:55:32;;;;;;;3.58;1.35;;;;;;;;;;5014587;28;20022;-74
2023/07/13 01:57:58;;;;;;;6.70;1.20;;;;;;;;;;5014858;28;20045;-74
2023/07/13 02:00:25;;;;;;;6.45;1.30;;;;;;;;;;5015238;28;20088;-74
2023/07/13 02:02:51;;;;;;;10.18;1.60;;;;;;;;;;5014886;28;20030;-74
2023/07/13 02:05:17;;;;;;;5.25;1.35;;;;;;;;;;5014857;28;20030;-74
2023/07/13 02:07:43;;;;;;;6.05;1.40;;;;;;;;;;5014792;28;20038;-74
2023/07/13 02:10:10;;;;;;;9.20;1.50;;;;;;;;;;5014537;28;20105;-74
2023/07/13 02:12:36;;;;;;;7.40;1.60;;;;;;;;;;5014259;28;20630;-74
2023/07/13 02:15:03;;;;;;;8.25;1.25;;;;;;;;;;5014631;28;20018;-74
2023/07/13 02:17:29;;;;;;;5.72;1.40;;;;;;;;;;5014578;28;20062;-74
2023/07/13 02:19:55;;;;;;;7.70;1.50;;;;;;;;;;5014624;28;20029;-74
2023/07/13 02:22:22;;;;;;;4.60;1.77;;;;;;;;;;5014630;28;20026;-74
2023/07/13 02:24:48;;;;;;;5.20;1.70;;;;;;;;;;5014552;28;20025;-74
2023/07/13 02:27:14;;;;;;;6.90;2.05;;;;;;;;;;5014871;28;20034;-74
2023/07/13 02:29:40;;;;;;;5.50;1.50;;;;;;;;;;5014611;28;20026;-74
2023/07/13 02:32:07;;;;;;;8.40;1.67;;;;;;;;;;5014484;28;20472;-74
2023/07/13 02:34:33;;;;;;;6.70;1.60;;;;;;;;;;5013138;28;20436;-74
2023/07/13 02:36:59;;;;;;;7.65;1.98;;;;;;;;;;5014254;28;20030;-74
2023/07/13 02:39:25;;;;;;;9.68;1.92;;;;;;;;;;5014345;28;20052;-74
2023/07/13 02:41:51;;;;;;;10.18;1.73;;;;;;;;;;5014542;28;20022;-74
2023/07/13 02:44:17;;;;;;;8.52;2.10;;;;;;;;;;5014322;28;20361;-74
2023/07/13 02:46:43;;;;;;;9.43;1.65;;;;;;;;;;5014060;28;20033;-74
2023/07/13 02:49:09;;;;;;;8.32;1.85;;;;;;;;;;5014520;28;20088;-74
2023/07/13 02:51:35;;;;;;;9.95;2.00;;;;;;;;;;5014067;28;20044;-74
2023/07/13 02:54:02;;;;;;;4.63;2.00;;;;;;;;;;5014160;28;20062;-74
2023/07/13 02:56:30;;;;;;;7.40;2.28;;;;;;;;;;5013966;28;20034;-74
2023/07/13 02:58:57;;;;;;;8.50;2.35;;;;;;;;;;5013783;28;20042;-74
2023/07/13 03:01:23;;;;;;;6.70;2.05;;;;;;;;;;5013644;28;20026;-74
2023/07/13 03:03:50;;;;;;;9.05;2.53;;;;;;;;;;5013786;28;20373;-74
2023/07/13 03:06:16;;;;;;;7.50;2.10;;;;;;;;;;5013817;28;20114;-74
2023/07/13 03:08:43;;;;;;;5.15;2.33;;;;;;;;;;5013574;28;20033;-74
2023/07/13 03:11:13;;;;;;;10.50;2.50;;;;;;;;;;5012485;28;20088;-74
2023/07/13 03:13:40;;;;;;;9.63;2.60;;;;;;;;;;5013349;28;20092;-74
2023/07/13 03:16:06;;;;;;;7.18;2.22;;;;;;;;;;5013579;28;20437;-74
2023/07/13 03:18:32;;;;;;;7.32;2.47;;;;;;;;;;5013601;28;20105;-74
2023/07/13 03:20:59;;;;;;;8.95;2.70;;;;;;;;;;5013509;28;20481;-74
2023/07/13 03:23:25;;;;;;;10.25;2.88;;;;;;;;;;5013609;28;20089;-74
2023/07/13 03:25:51;;;;;;;7.78;2.22;;;;;;;;;;5013442;28;20530;-74
2023/07/13 03:28:17;;;;;;;9.90;2.40;;;;;;;;;;5013443;28;20029;-74
2023/07/13 03:30:43;;;;;;;6.22;2.10;;;;;;;;;;5013166;28;20108;-74
2023/07/13 03:33:09;;;;;;;6.63;2.40;;;;;;;;;;5013324;28;20262;-74
2023/07/13 03:35:36;;;;;;;7.13;2.40;;;;;;;;;;5013582;28;20441;-74
2023/07/13 03:38:02;;;;;;;4.80;2.20;;;;;;;;;;5013208;28;20037;-74
2023/07/13 03:40:28;;;;;;;7.68;2.47;;;;;;;;;;4999329;28;20022;-75
2023/07/13 03:42:54;;;;;;;5.93;2.42;;;;;;;;;;4993590;28;20058;-74
2023/07/13 03:45:20;;;;;;;4.80;2.42;;;;;;;;;;4993609;28;20058;-75
2023/07/13 03:47:46;;;;;;;6.47;2.72;;;;;;;;;;4993547;28;20030;-75
2023/07/13 03:50:12;;;;;;;8.70;2.63;;;;;;;;;;4993442;28;20022;-74
2023/07/13 03:52:38;;;;;;;9.23;2.80;;;;;;;;;;4993663;28;20036;-75
2023/07/13 03:55:06;;;;;;;7.45;2.25;;;;;;;;;;4993470;28;20054;-75
2023/07/13 03:57:32;;;;;;;8.23;3.33;;;;;;;;;;4992001;28;20022;-74
2023/07/13 03:59:58;;;;;;;7.80;2.70;;;;;;;;;;4993399;28;20065;-75
2023/07/13 04:02:24;;;;;;;8.45;2.60;;;;;;;;;;4993316;28;20022;-75
2023/07/13 04:04:50;;;;;;;6.93;2.17;;;;;;;;;;4993251;28;20037;-75
2023/07/13 04:07:16;;;;;;;9.95;2.70;;;;;;;;;;4993284;28;20464;-75
2023/07/13 04:09:42;;;;;;;7.45;2.65;;;;;;;;;;4993459;28;20026;-75
2023/07/13 04:12:09;;;;;;;9.70;2.60;;;;;;;;;;4992388;28;20052;-75
2023/07/13 04:14:35;;;;;;;8.00;2.65;;;;;;;;;;4993168;28;20033;-74
2023/07/13 04:17:01;;;;;;;7.82;2.63;;;;;;;;;;4992009;28;20077;-75
2023/07/13 04:19:27;;;;;;;6.00;2.35;;;;;;;;;;4993163;28;20026;-75
2023/07/13 04:21:53;;;;;;;9.00;2.60;;;;;;;;;;4993065;28;20026;-75
2023/07/13 04:24:25;;;;;;;8.45;2.15;;;;;;;;;;4993027;28;20030;-75
2023/07/13 04:26:51;;;;;;;8.48;2.38;;;;;;;;;;4993284;28;20026;-75
2023/07/13 04:29:17;;;;;;;5.20;2.03;;;;;;;;;;4992878;28;20027;-75
2023/07/13 04:31:43;;;;;;;4.47;1.85;;;;;;;;;;4992439;28;20029;-75
2023/07/13 04:34:10;;;;;;;6.28;2.08;;;;;;;;;;4999731;28;20053;-74
2023/07/13 04:36:37;;;;;;;3.58;1.80;;;;;;;;;;5012362;28;20034;-74
2023/07/13 04:39:03;;;;;;;4.75;1.80;;;;;;;;;;5012626;28;20030;-75
2023/07/13 04:41:29;;;;;;;7.25;2.28;;;;;;;;;;5012470;28;20022;-75
2023/07/13 04:43:56;;;;;;;4.25;1.95;;;;;;;;;;5012298;28;20076;-75
2023/07/13 04:46:22;;;;;;;5.00;1.90;;;;;;;;;;5012609;28;20053;-75
2023/07/13 04:48:50;;;;;;;4.97;1.80;;;;;;;;;;5012343;28;20397;-75
2023/07/13 04:51:17;;;;;;;4.60;1.73;;;;;;;;;;5012949;28;20061;-75
2023/07/13 04:53:43;;;;;;;3.55;1.40;;;;;;;;;;5012731;28;20026;-75
2023/07/13 04:56:09;;;;;;;4.07;1.60;;;;;;;;;;5012625;28;20029;-75
2023/07/13 04:58:35;;;;;;;5.95;1.58;;;;;;;;;;5013096;28;20033;-75
2023/07/13 05:01:05;;;;;;;3.80;1.40;;;;;;;;;;5012504;28;20365;-75
2023/07/13 05:03:31;;;;;;;4.88;1.60;;;;;;;;;;5012288;28;20026;-75
2023/07/13 05:05:58;;;;;;;4.72;1.80;;;;;;;;;;5000872;28;20105;-75
2023/07/13 05:08:24;;;;;;;4.97;1.40;;;;;;;;;;4992651;28;20030;-75
2023/07/13 05:10:51;;;;;;;4.28;1.45;;;;;;;;;;4991496;28;20054;-75
2023/07/13 05:13:17;;;;;;;5.25;1.40;;;;;;;;;;4993042;28;20029;-75
2023/07/13 05:15:43;;;;;;;4.97;1.50;;;;;;;;;;4992564;28;20101;-75
2023/07/13 05:18:09;;;;;;;4.22;1.35;;;;;;;;;;4992632;28;20117;-75
2023/07/13 05:20:35;;;;;;;1.58;1.10;;;;;;;;;;4992730;28;20037;-75
2023/07/13 05:23:01;;;;;;;2.22;0.93;;;;;;;;;;4992823;28;20027;-75
2023/07/13 05:25:27;;;;;;;6.38;1.23;;;;;;;;;;4996232;28;20030;-75
2023/07/13 05:27:53;;;;;;;3.58;1.15;;;;;;;;;;4997143;28;20454;-75
2023/07/13 05:30:19;;;;;;;3.40;1.30;;;;;;;;;;4996185;28;20030;-75
2023/07/13 05:32:45;;;;;;;4.05;1.25;;;;;;;;;;4996361;28;20026;-75
2023/07/13 05:35:11;;;;;;;3.33;1.30;;;;;;;;;;4997237;28;20026;-75
2023/07/13 05:37:38;;;;;;;3.42;1.10;;;;;;;;;;4996717;28;20038;-75
2023/07/13 05:40:04;;;;;;;3.28;1.20;;;;;;;;;;5011388;28;20029;-75
2023/07/13 05:42:31;;;;;;;3.08;1.40;;;;;;;;;;5016875;28;20065;-75
2023/07/13 05:44:57;;;;;;;6.13;1.30;;;;;;;;;;5016773;28;20021;-76
2023/07/13 05:47:23;;;;;;;3.70;1.27;;;;;;;;;;5015356;28;20055;-76
2023/07/13 05:49:49;;;;;;;3.55;1.02;;;;;;;;;;5015156;28;20025;-75
2023/07/13 05:52:15;;;;;;;3.53;1.30;;;;;;;;;;5015151;28;20026;-76
2023/07/13 05:54:41;;;;;;;1.80;1.02;;;;;;;;;;5015544;28;20420;-76
2023/07/13 05:57:07;;;;;;;3.40;1.30;;;;;;;;;;5016924;28;20040;-74
2023/07/13 05:59:33;;;;;;;3.88;1.25;;;;;;;;;;5005694;28;20076;-74
2023/07/13 06:01:59;;;;;;;3.65;1.05;;;;;;;;;;5015009;28;20052;-75
2023/07/13 06:04:25;;;;;;;3.78;1.15;;;;;;;;;;5015293;28;20050;-76
2023/07/13 06:06:51;;;;;;;3.90;1.25;;;;;;;;;;5014929;28;20066;-74
2023/07/13 06:09:18;;;;;;;3.03;1.30;;;;;;;;;;5013623;28;20121;-74
2023/07/13 06:11:44;;;;;;;5.50;1.30;;;;;;;;;;5013833;28;20060;-74
2023/07/13 06:14:10;;;;;;;2.53;1.05;;;;;;;;;;5014928;28;20482;-74
2023/07/13 06:16:36;;;;;;;3.55;1.13;;;;;;;;;;5014760;28;20389;-74
2023/07/13 06:19:02;;;;;;;2.42;1.00;;;;;;;;;;5014801;28;20450;-73
2023/07/13 06:21:28;;;;;;;2.88;1.00;;;;;;;;;;5014687;28;20052;-74
2023/07/13 06:23:55;;;;;;;2.95;1.10;;;;;;;;;;5014679;28;20473;-74
2023/07/13 06:26:21;;;;;;;2.42;1.10;;;;;;;;;;5014587;28;20365;-73
2023/07/13 06:28:47;;;;;;;2.25;1.00;;;;;;;;;;5014554;28;20105;-74
2023/07/13 06:31:15;;;;;;;3.88;1.35;;;;;;;;;;5014828;28;20424;-74
2023/07/13 06:33:41;;;;;;;3.90;1.08;;;;;;;;;;5014485;28;20476;-75
2023/07/13 06:36:07;;;;;;;3.88;1.10;;;;;;;;;;5013927;28;20450;-76
2023/07/13 06:38:34;;;;;;;3.72;1.20;;;;;;;;;;5014412;28;20026;-76
2023/07/13 06:41:00;;;;;;;3.65;1.00;;;;;;;;;;5014315;28;20041;-76
2023/07/13 06:43:28;;;;;;;5.25;1.27;;;;;;;;;;5014600;28;20030;-76
2023/07/13 06:45:55;;;;;;;5.13;1.10;;;;;;;;;;5012718;28;20108;-76
2023/07/13 06:48:21;;;;;;;4.60;1.20;;;;;;;;;;5013914;28;20057;-76
2023/07/13 06:50:49;;;;;;;4.20;1.05;;;;;;;;;;5014127;28;20029;-74
2023/07/13 06:53:15;;;;;;;4.07;1.33;;;;;;;;;;5014734;28;20048;-74
2023/07/13 06:55:45;;;;;;;3.25;1.25;;;;;;;;;;5014142;28;20449;-74
2023/07/13 06:58:11;;;;;;;3.03;1.17;;;;;;;;;;5012693;28;20176;-74
2023/07/13 07:00:37;;;;;;;2.70;1.20;;;;;;;;;;5013910;28;20361;-73
2023/07/13 07:03:03;;;;;;;3.60;1.40;;;;;;;;;;5013746;28;20095;-73
2023/07/13 07:05:29;;;;;;;3.92;1.17;;;;;;;;;;5013921;28;20022;-73
2023/07/13 07:07:56;;;;;;;3.40;1.13;;;;;;;;;;5013675;28;20120;-74
2023/07/13 07:10:22;;;;;;;5.85;1.40;;;;;;;;;;5012537;28;20483;-74
2023/07/13 07:12:48;;;;;;;3.95;1.40;;;;;;;;;;5012897;28;20062;-74
2023/07/13 07:15:14;;;;;;;4.78;1.38;;;;;;;;;;5013328;28;20028;-75
2023/07/13 07:17:40;;;;;;;3.75;1.50;;;;;;;;;;5013480;28;20034;-74
2023/07/13 07:20:07;;;;;;;4.93;1.92;;;;;;;;;;5013736;28;20160;-74
2023/07/13 07:22:33;;;;;;;4.03;1.20;;;;;;;;;;5013642;28;20350;-74
2023/07/13 07:24:59;;;;;;;3.10;1.23;;;;;;;;;;5012271;28;20029;-74
2023/07/13 07:27:26;;;;;;;3.00;1.25;;;;;;;;;;5013363;28;20022;-74
2023/07/13 07:29:52;;;;;;;2.95;1.35;;;;;;;;;;5013692;28;20025;-75
2023/07/13 07:32:19;;;;;;;4.15;1.20;;;;;;;;;;5013493;28;20084;-75
2023/07/13 07:34:45;;;;;;;2.90;1.17;;;;;;;;;;5013556;28;20104;-75
2023/07/13 07:37:12;;;;;;;5.03;1.35;;;;;;;;;;5013538;28;20068;-74
2023/07/13 07:39:38;;;;;;;3.95;1.20;;;;;;;;;;5013348;28;20053;-75
2023/07/13 07:42:04;;;;;;;4.60;1.00;;;;;;;;;;5013259;28;20022;-75
2023/07/13 07:44:31;;;;;;;2.63;1.00;;;;;;;;;;5013438;28;20440;-75
2023/07/13 07:46:57;;;;;;;2.38;1.10;;;;;;;;;;5012232;28;20092;-74
2023/07/13 07:49:23;;;;;;;3.67;1.13;;;;;;;;;;5013182;28;20032;-75
2023/07/13 07:51:49;;;;;;;3.30;1.15;;;;;;;;;;5013100;28;20064;-75
2023/07/13 07:54:16;;;;;;;3.63;0.98;;;;;;;;;;5013109;28;20109;-75
2023/07/13 07:56:42;;;;;;;3.60;1.20;;;;;;;;;;5011742;28;20026;-75
2023/07/13 07:59:08;;;;;;;2.50;1.00;;;;;;;;;;5012857;28;20045;-75
2023/07/13 08:01:34;;;;;;;4.07;1.20;;;;;;;;;;5011414;28;20053;-75
2023/07/13 08:04:00;;;;;;;1.98;1.00;;;;;;;;;;5013298;28;20084;-75
2023/07/13 08:06:26;;;;;;;2.55;1.08;;;;;;;;;;5012939;28;20018;-75
2023/07/13 08:08:52;;;;;;;2.95;1.27;;;;;;;;;;5012942;28;20064;-75
2023/07/13 08:11:18;;;;;;;5.10;1.38;;;;;;;;;;5011390;28;20517;-75
2023/07/13 08:13:44;;;;;;;2.53;1.15;;;;;;;;;;5013422;28;20030;-75
2023/07/13 08:16:11;;;;;;;5.22;1.38;;;;;;;;;;5012696;28;20030;-75
2023/07/13 08:18:37;;;;;;;5.50;1.27;;;;;;;;;;5012742;28;20034;-75
2023/07/13 08:21:04;;;;;;;2.53;0.82;;;;;;;;;;5012659;28;20108;-75
2023/07/13 08:23:30;;;;;;;5.45;1.25;;;;;;;;;;5012691;28;20030;-75
2023/07/13 08:25:57;;;;;;;2.58;0.80;;;;;;;;;;5012776;28;20076;-75
2023/07/13 08:28:23;;;;;;;1.92;0.70;;;;;;;;;;5012648;28;20026;-74
2023/07/13 08:30:49;;;;;;;1.60;1.10;;;;;;;;;;5012507;28;20018;-75
2023/07/13 08:33:15;;;;;;;1.92;0.88;;;;;;;;;;5012560;28;20097;-75
2023/07/13 08:35:41;;;;;;;2.67;1.00;;;;;;;;;;5012410;28;20554;-75
2023/07/13 08:38:08;;;;;;;3.88;1.00;;;;;;;;;;5012517;28;20121;-75
2023/07/13 08:40:35;;;;;;;1.70;0.90;;;;;;;;;;5012608;28;20428;-75
2023/07/13 08:43:01;;;;;;;3.90;1.00;;;;;;;;;;5011290;28;20209;-75
2023/07/13 08:45:33;;;;;;;2.28;0.77;;;;;;;;;;5012786;28;20034;-75
2023/07/13 08:48:09;;;;;;;1.90;1.00;;;;;;;;;;5012510;28;20116;-75
2023/07/13 08:51:01;;;;;;;2.35;1.00;;;;;;;;;;5012389;28;20041;-75
2023/07/13 08:53:48;;;;;;;2.70;0.90;;;;;;;;;;5011022;28;20038;-75
2023/07/13 08:56:18;;;;;;;2.47;0.95;;;;;;;;;;5011941;28;20054;-75
2023/07/13 08:58:44;;;;;;;2.85;1.08;;;;;;;;;;5013609;28;20030;-75
2023/07/13 09:01:16;;;;;;;2.72;1.15;;;;;;;;;;5016249;28;20420;-75
2023/07/13 09:04:03;;;;;;;3.50;1.10;;;;;;;;;;5016188;28;20054;-75
2023/07/13 09:06:35;;;;;;;3.15;1.02;;;;;;;;;;5015957;28;20030;-75
2023/07/13 09:09:10;;;;;;;1.38;0.82;;;;;;;;;;5016212;28;20060;-75
2023/07/13 09:11:37;;;;;;;2.80;0.80;;;;;;;;;;5015354;28;20049;-75
2023/07/13 09:14:03;;;;;;;2.35;0.60;;;;;;;;;;5016383;28;20633;-74
2023/07/13 09:16:29;;;;;;;0.93;0.52;;;;;;;;;;5015942;28;20041;-75
2023/07/13 09:18:56;;;;;;;1.40;0.63;;;;;;;;;;5015870;28;20151;-75
2023/07/13 09:21:25;;;;;;;1.42;0.52;;;;;;;;;;5015827;28;20022;-75
2023/07/13 09:23:56;;;;;;;1.13;0.68;;;;;;;;;;5016220;28;20112;-75
2023/07/13 09:26:23;;;;;;;2.88;0.70;;;;;;;;;;5015978;28;20026;-75
2023/07/13 09:28:54;;;;;;;1.88;0.80;;;;;;;;;;5015881;28;20022;-75
2023/07/13 09:31:21;;;;;;;1.70;0.90;;;;;;;;;;5015802;28;20024;-75
2023/07/13 09:33:48;;;;;;;2.60;0.90;;;;;;;;;;5016062;28;20033;-75
2023/07/13 09:36:21;;;;;;;2.30;0.82;;;;;;;;;;5015553;28;20022;-75
2023/07/13 09:38:48;;;;;;;3.47;0.93;;;;;;;;;;5016028;28;20061;-75
2023/07/13 09:41:30;;;;;;;1.38;0.88;;;;;;;;;;5015579;28;20037;-74
2023/07/13 09:44:15;;;;;;;1.73;0.82;;;;;;;;;;5014221;28;20030;-75
2023/07/13 09:46:46;;;;;;;2.97;1.23;;;;;;;;;;5015302;28;20040;-75
2023/07/13 09:49:12;;;;;;;2.63;1.08;;;;;;;;;;5015350;28;20457;-75
2023/07/13 09:51:41;;;;;;;3.38;1.25;;;;;;;;;;5015216;28;20524;-75
2023/07/13 09:54:17;;;;;;;4.88;1.33;;;;;;;;;;5015622;28;20534;-75
2023/07/13 09:56:44;;;;;;;3.83;1.38;;;;;;;;;;5014575;28;20052;-75
2023/07/13 09:59:21;;;;;;;3.15;1.60;;;;;;;;;;5007918;28;20037;-75
2023/07/13 10:01:48;;;;;;;3.15;1.50;;;;;;;;;;5011810;28;20457;-75
2023/07/13 10:04:18;;;;;;;3.72;1.60;;;;;;;;;;5015413;28;20029;-75
2023/07/13 10:06:44;;;;;;;3.20;1.08;;;;;;;;;;5015593;28;20018;-74
2023/07/13 10:09:11;;;;;;;3.88;1.42;;;;;;;;;;5015100;28;20030;-75
2023/07/13 10:11:37;;;;;;;2.58;1.10;;;;;;;;;;5012708;28;20050;-75
2023/07/13 10:14:16;;;;;;;5.43;1.20;;;;;;;;;;4995821;28;20057;-75
2023/07/13 10:16:44;;;;;;;2.78;1.10;;;;;;;;;;4995149;28;20030;-75
2023/07/13 10:19:15;;;;;;;2.47;1.30;;;;;;;;;;4995046;28;20042;-75
2023/07/13 10:22:04;;;;;;;2.88;1.17;;;;;;;;;;4995089;28;20444;-76
2023/07/13 10:24:32;;;;;;;1.88;1.05;;;;;;;;;;4987329;28;20030;-76
2023/07/13 10:27:04;;;;;;;2.47;1.35;;;;;;;;;;4995164;28;20105;-76
2023/07/13 10:29:31;;;;;;;3.58;1.10;;;;;;;;;;4995175;28;20027;-76
2023/07/13 10:31:57;;;;;;;4.03;1.38;;;;;;;;;;4994978;28;20084;-75
2023/07/13 10:34:23;;;;;;;3.65;1.33;;;;;;;;;;4995326;28;20033;-75
2023/07/13 10:36:50;;;;;;;3.40;1.30;;;;;;;;;;4994853;28;20097;-75
2023/07/13 10:39:18;;;;;;;5.65;1.67;;;;;;;;;;4994966;28;20060;-75
2023/07/13 10:41:45;;;;;;;3.95;1.63;;;;;;;;;;4994890;28;20023;-76
2023/07/13 10:44:16;;;;;;;5.55;1.42;;;;;;;;;;4994906;28;20050;-75
2023/07/13 10:46:43;;;;;;;3.97;1.40;;;;;;;;;;4994763;28;20018;-76
2023/07/13 10:49:12;;;;;;;3.40;1.25;;;;;;;;;;4994760;28;20121;-76
2023/07/13 10:51:38;;;;;;;2.47;1.20;;;;;;;;;;4994646;28;20022;-75
2023/07/13 10:54:10;;;;;;;4.05;1.60;;;;;;;;;;4994667;28;20354;-76
2023/07/13 10:56:36;;;;;;;2.63;1.60;;;;;;;;;;5007752;28;20030;-76
2023/07/13 10:59:10;;;;;;;4.47;1.70;;;;;;;;;;5013959;28;20034;-75
2023/07/13 11:01:40;;;;;;;3.08;1.50;;;;;;;;;;5014581;28;20029;-76
2023/07/13 11:04:12;;;;;;;3.63;1.45;;;;;;;;;;5014100;28;20033;-75
2023/07/13 11:06:44;;;;;;;3.55;1.35;;;;;;;;;;5013986;28;20022;-75
2023/07/13 11:09:28;;;;;;;3.70;1.30;;;;;;;;;;5014139;28;20121;-75
2023/07/13 11:11:58;;;;;;;3.63;1.80;;;;;;;;;;5013490;28;20388;-76
2023/07/13 11:14:27;;;;;;;3.30;1.50;;;;;;;;;;5014184;28;20437;-75
2023/07/13 11:16:53;;;;;;;3.55;1.20;;;;;;;;;;5012937;28;20053;-75
2023/07/13 11:19:19;;;;;;;4.45;1.48;;;;;;;;;;4992297;28;20045;-77
2023/07/13 11:22:04;;;;;;;3.03;1.30;;;;;;;;;;4993395;28;20030;-74
2023/07/13 11:24:47;;;;;;;4.75;1.60;;;;;;;;;;4994089;28;20109;-74
2023/07/13 11:27:36;;;;;;;5.80;1.33;;;;;;;;;;4992660;28;20408;-74
2023/07/13 11:30:10;;;;;;;3.55;1.35;;;;;;;;;;4994222;28;20485;-74
2023/07/13 11:32:36;;;;;;;3.25;1.30;;;;;;;;;;4994135;28;20109;-74
2023/07/13 11:35:02;;;;;;;4.07;1.30;;;;;;;;;;4993792;28;20030;-74
2023/07/13 11:37:29;;;;;;;3.67;1.20;;;;;;;;;;4993608;28;20036;-74
2023/07/13 11:39:56;;;;;;;3.60;1.30;;;;;;;;;;4993542;28;20025;-74
2023/07/13 11:42:22;;;;;;;2.25;1.40;;;;;;;;;;4993493;28;20342;-74
2023/07/13 11:44:49;;;;;;;3.03;1.52;;;;;;;;;;4993953;28;20102;-74
2023/07/13 11:47:20;;;;;;;4.32;1.50;;;;;;;;;;4993577;28;20045;-74
2023/07/13 11:49:49;;;;;;;4.00;1.55;;;;;;;;;;4993622;28;20050;-74
2023/07/13 11:52:16;;;;;;;4.75;1.35;;;;;;;;;;4993512;28;20105;-74
2023/07/13 11:54:55;;;;;;;3.13;1.60;;;;;;;;;;4993581;28;20049;-74
2023/07/13 11:57:35;;;;;;;5.25;1.90;;;;;;;;;;4993720;28;20081;-74
2023/07/13 12:00:10;;;;;;;4.32;1.58;;;;;;;;;;4993384;28;20359;-74
2023/07/13 12:02:38;;;;;;;7.43;1.70;;;;;;;;;;4993463;28;20018;-74
2023/07/13 12:05:05;;;;;;;2.35;1.20;;;;;;;;;;4993215;28;20053;-74
2023/07/13 12:07:32;;;;;;;3.63;1.42;;;;;;;;;;4995333;28;20026;-75
2023/07/13 12:10:21;;;;;;;5.07;1.13;;;;;;;;;;5011932;28;20373;-75
2023/07/13 12:13:00;;;;;;;3.40;1.30;;;;;;;;;;5003929;28;20038;-75
2023/07/13 12:15:42;;;;;;;4.03;1.60;;;;;;;;;;5013130;28;20029;-75
2023/07/13 12:18:15;;;;;;;5.45;1.60;;;;;;;;;;5012745;28;20042;-75
2023/07/13 12:20:41;;;;;;;4.28;1.88;;;;;;;;;;5012377;28;20024;-75
2023/07/13 12:23:15;;;;;;;5.47;1.80;;;;;;;;;;5012418;28;20493;-75
2023/07/13 12:25:43;;;;;;;4.32;1.98;;;;;;;;;;5012293;28;20141;-75
2023/07/13 12:28:42;;;;;;;5.00;1.80;;;;;;;;;;5013058;28;20022;-75
2023/07/13 12:31:24;;;;;;;5.87;2.17;;;;;;;;;;4988829;28;20038;-75
2023/07/13 12:33:57;;;;;;;5.60;2.00;;;;;;;;;;5011815;28;20259;-76
2023/07/13 12:36:23;;;;;;;5.35;2.05;;;;;;;;;;5012753;28;20030;-75
2023/07/13 12:38:51;;;;;;;7.40;2.20;;;;;;;;;;5011933;28;20038;-76
2023/07/13 12:41:17;;;;;;;4.13;2.10;;;;;;;;;;5011792;28;20029;-76
2023/07/13 12:43:45;;;;;;;4.28;1.80;;;;;;;;;;5011290;28;20649;-76
2023/07/13 12:46:17;;;;;;;5.20;2.67;;;;;;;;;;5011952;28;20419;-76
2023/07/13 12:48:45;;;;;;;4.30;1.83;;;;;;;;;;5011428;28;20026;-76
2023/07/13 12:51:13;;;;;;;3.88;1.80;;;;;;;;;;5011597;28;20088;-75
2023/07/13 12:53:41;;;;;;;5.72;2.50;;;;;;;;;;5010932;28;20030;-76
2023/07/13 12:56:10;;;;;;;5.50;2.43;;;;;;;;;;5012434;28;20029;-76
2023/07/13 12:58:38;;;;;;;5.07;2.20;;;;;;;;;;5012281;28;20290;-76
2023/07/13 13:01:05;;;;;;;3.78;2.00;;;;;;;;;;5012277;28;20030;-76
2023/07/13 13:03:37;;;;;;;6.47;2.47;;;;;;;;;;5012542;28;20052;-76
2023/07/13 13:06:21;;;;;;;6.10;2.00;;;;;;;;;;5012125;28;20045;-76
2023/07/13 13:08:49;;;;;;;6.50;2.13;;;;;;;;;;5011064;28;20038;-76
2023/07/13 13:11:16;;;;;;;5.70;2.47;;;;;;;;;;5011953;28;20022;-76
2023/07/13 13:13:42;;;;;;;7.55;2.80;;;;;;;;;;5012114;28;20515;-76
2023/07/13 13:16:18;;;;;;;5.57;2.30;;;;;;;;;;5012283;28;20095;-76
2023/07/13 13:18:44;;;;;;;6.05;2.03;;;;;;;;;;5012499;28;20030;-75
2023/07/13 13:21:11;;;;;;;5.88;2.30;;;;;;;;;;5010820;28;20025;-75
2023/07/13 13:23:37;;;;;;;6.53;2.15;;;;;;;;;;5012190;28;20020;-76
2023/07/13 13:26:03;;;;;;;4.95;2.05;;;;;;;;;;5012093;28;20045;-75
2023/07/13 13:28:30;;;;;;;5.15;2.33;;;;;;;;;;5011978;28;20124;-76
2023/07/13 13:30:56;;;;;;;7.03;2.00;;;;;;;;;;5012012;28;20022;-76
2023/07/13 13:33:23;;;;;;;7.07;2.20;;;;;;;;;;5012261;28;20034;-75
2023/07/13 13:35:49;;;;;;;7.78;2.10;;;;;;;;;;5012004;28;20381;-75
2023/07/13 13:38:20;;;;;;;5.68;2.28;;;;;;;;;;5011899;28;20438;-75
2023/07/13 13:40:46;;;;;;;3.80;1.73;;;;;;;;;;5011725;28;20149;-75
2023/07/13 13:43:17;;;;;;;5.15;2.10;;;;;;;;;;5012401;28;20503;-75
2023/07/13 13:45:43;;;;;;;8.07;2.50;;;;;;;;;;5013026;28;20514;-76
2023/07/13 13:48:14;;;;;;;5.40;1.80;;;;;;;;;;5015423;28;20161;-76
2023/07/13 13:50:41;;;;;;;6.82;2.08;;;;;;;;;;5015429;28;20045;-75
2023/07/13 13:53:10;;;;;;;5.00;1.80;;;;;;;;;;5015123;28;20037;-75
2023/07/13 13:55:36;;;;;;;;;;;;;;;;;;5015494;28;20719;-75
2023/07/13 13:58:03;;;;;;;4.05;1.75;;;;;;;;;;5015030;28;19963;-74
2023/07/13 14:00:29;;;;;;;5.97;1.75;;;;;;;;;;5015393;28;20053;-75
2023/07/13 14:02:57;;;;;;;5.72;2.03;;;;;;;;;;5015193;28;20029;-76
2023/07/13 14:05:26;;;;;;;6.68;2.55;;;;;;;;;;5015295;28;20022;-75
2023/07/13 14:07:52;;;;;;;4.80;1.67;;;;;;;;;;5015265;28;20473;-76
2023/07/13 14:10:19;;;;;;;5.78;2.13;;;;;;;;;;5014637;28;20491;-76
2023/07/13 14:12:51;;;;;;;6.53;1.48;;;;;;;;;;5013348;28;20123;-74
2023/07/13 14:15:28;;;;;;;4.93;2.00;;;;;;;;;;5014606;28;20026;-74
2023/07/13 14:17:55;;;;;;;4.22;2.05;;;;;;;;;;5014724;28;20453;-74
2023/07/13 14:20:23;;;;;;;5.25;2.15;;;;;;;;;;5012825;28;20022;-74
2023/07/13 14:22:50;;;;;;;6.72;2.22;;;;;;;;;;5014692;28;20349;-74
2023/07/13 14:25:16;;;;;;;4.80;1.88;;;;;;;;;;5014587;28;20458;-74
2023/07/13 14:27:43;;;;;;;5.00;2.00;;;;;;;;;;5014450;28;20389;-74
2023/07/13 14:30:20;;;;;;;6.25;2.30;;;;;;;;;;5014274;28;20101;-74
2023/07/13 14:32:46;;;;;;;6.45;2.40;;;;;;;;;;5014637;28;20022;-74
2023/07/13 14:35:14;;;;;;;5.57;2.22;;;;;;;;;;5014149;28;20122;-74
2023/07/13 14:37:40;;;;;;;4.65;2.10;;;;;;;;;;5013928;28;20026;-73
2023/07/13 14:40:14;;;;;;;5.47;2.28;;;;;;;;;;5013986;28;20025;-74
2023/07/13 14:42:40;;;;;;;4.93;1.90;;;;;;;;;;5014857;28;20029;-74
2023/07/13 14:45:06;;;;;;;3.88;1.90;;;;;;;;;;5014307;28;20026;-74
2023/07/13 14:47:32;;;;;;;9.68;2.25;;;;;;;;;;5014186;28;20041;-74